Clearfield, PA

1:58 AM EDT on March 30, 2015 (GMT -0400)
Du Bois-Jefferson County | | Change Station
CLOSE
Current Station
Airport
Location: Du Bois,
Elevation: 1818 ft
Nearby Weather Stations

Elev 1818 ft 41.18 °N, 78.90 °W | Updated 5 minutes ago

Overcast
Overcast
34 °F
Feels Like 26 °F
N
10
Wind Variable Wind from SSW

Today
High -- | Low -- °F
--% Chance of Precip.
Yesterday
High -- | Low -- °F
Precip. -- in
7:00 AM 7:36 PM
Waxing Gibbous, 77% visible
Pressure 29.88 in
Visibility 2.0 miles
Clouds Mostly Cloudy 700 ft
Overcast 1300 ft
Windchill 26 °F
Dew Point 30 °F
Humidity 85%
Rainfall 0.00 in
Snow Depth Not available.
UV 0 out of 12
Pollen 6.20 out of 12
Air Quality Not available.
Flu Activity Not available.
METAR KDUJ 300553Z AUTO 21009KT 2SM BR BKN007 OVC013 01/M01 A2984 RMK AO2 SNE18B41E50 CIG 005V009 SLP117 P0000 60000 T00111011 10050 20011 58026

More Conditions Fewer Conditions

Pressure 29.88 in
Visibility 2.0 miles
Clouds Mostly Cloudy 700 ft
Overcast 1300 ft
Windchill 26 °F
Dew Point 30 °F
Humidity 85%
Rainfall 0.00 in
Snow Depth Not available.
UV 0 out of 12
Pollen 6.20 out of 12
Air Quality Not available.
Flu Activity Not available.
METAR KDUJ 300553Z AUTO 21009KT 2SM BR BKN007 OVC013 01/M01 A2984 RMK AO2 SNE18B41E50 CIG 005V009 SLP117 P0000 60000 T00111011 10050 20011 58026

More Conditions Fewer Conditions

Nowcast | as of 12:48 am EDT on March 30, 2015

Patchy snow and gusty winds will be across the area through 4 am. The snow may come down hard for a brief time. Wind gust to 40 mph will be likely. Snow accumulation is expected to be on the light side.

×

10-Day Weather Forecast

Almanac

Astronomy

Mar. 30, 2015 Rise Set
Actual Time
Civil Twilight
Nautical Twilight
Astronomical Twilight
Moon
Length of Visible Light
Length of Day
Tomorrow will be .
, % of the Moon is Illuminated

Today's Extremes

State Highs State Lows

Community

WunderPhotos

Upload Photos

1,809,437 photos uploaded!

WunderBlogs® & News

Nearby

Air Quality

  Air Quality AQ Index Pollutant
Not available.

Snow Depth

Station Depth Elevation

Earthquake Activity

City Distance Mag. Time & Date
Minimum magnitude displayed is 2.5.

Coastal Water Temperatures

Place Temperature

Stations

Nearby Weather Stations

Station Location Temp. Windchill Dew Point Humidity Wind Precip. Elev Updated Type